<?xml version="1.0" encoding="UTF-8" standalone="no" ?>
<gpx xmlns="http://www.topografix.com/GPX/1/1" xmlns:xsi="http://www.w3.org/2001/XMLSchema-instance" xsi:schemaLocation="http://www.topografix.com/GPX/1/1 http://www.topografix.com/GPX/1/1/gpx.xsd" version="1.1" creator="VisuGPX - https://www.visugpx.com">
  <metadata>
    <name>MARCHE D AUTOMNE  2024 1</name>
    <desc><![CDATA[FAIT]]></desc>
  </metadata>
  <trk>
    <name><![CDATA[MARCHE D AUTOMNE 1 LE  20/10/2024-20135060]]></name>
    <trkseg>
      <trkpt lat="49.19541" lon="1.9279">
        <ele>125</ele>
        <time>2025-01-19T12:36:12Z</time>
      </trkpt>
      <trkpt lat="49.19534" lon="1.92801">
        <ele>125</ele>
        <time>2025-01-19T12:36:25Z</time>
      </trkpt>
      <trkpt lat="49.19533" lon="1.92843">
        <ele>125</ele>
        <time>2025-01-19T12:37:02Z</time>
      </trkpt>
      <trkpt lat="49.19524" lon="1.92884">
        <ele>124</ele>
        <time>2025-01-19T12:37:40Z</time>
      </trkpt>
      <trkpt lat="49.19528" lon="1.92918">
        <ele>124</ele>
        <time>2025-01-19T12:38:10Z</time>
      </trkpt>
      <trkpt lat="49.19535" lon="1.9294">
        <ele>123</ele>
        <time>2025-01-19T12:38:31Z</time>
      </trkpt>
      <trkpt lat="49.19529" lon="1.9299">
        <ele>121</ele>
        <time>2025-01-19T12:39:16Z</time>
      </trkpt>
      <trkpt lat="49.19502" lon="1.93031">
        <ele>118</ele>
        <time>2025-01-19T12:40:06Z</time>
      </trkpt>
      <trkpt lat="49.19462" lon="1.93111">
        <ele>110</ele>
        <time>2025-01-19T12:41:34Z</time>
      </trkpt>
      <trkpt lat="49.1945" lon="1.93147">
        <ele>108</ele>
        <time>2025-01-19T12:42:09Z</time>
      </trkpt>
      <trkpt lat="49.19433" lon="1.9317">
        <ele>106</ele>
        <time>2025-01-19T12:42:40Z</time>
      </trkpt>
      <trkpt lat="49.19414" lon="1.93208">
        <ele>103</ele>
        <time>2025-01-19T12:43:21Z</time>
      </trkpt>
      <trkpt lat="49.19407" lon="1.93342">
        <ele>101</ele>
        <time>2025-01-19T12:45:19Z</time>
      </trkpt>
      <trkpt lat="49.19387" lon="1.93429">
        <ele>100</ele>
        <time>2025-01-19T12:46:39Z</time>
      </trkpt>
      <trkpt lat="49.1938" lon="1.93505">
        <ele>99</ele>
        <time>2025-01-19T12:47:46Z</time>
      </trkpt>
      <trkpt lat="49.19382" lon="1.9356">
        <ele>99</ele>
        <time>2025-01-19T12:48:34Z</time>
      </trkpt>
      <trkpt lat="49.19378" lon="1.93567">
        <ele>99</ele>
        <time>2025-01-19T12:48:42Z</time>
      </trkpt>
      <trkpt lat="49.19372" lon="1.93569">
        <ele>99</ele>
        <time>2025-01-19T12:48:50Z</time>
      </trkpt>
      <trkpt lat="49.19358" lon="1.93559">
        <ele>99</ele>
        <time>2025-01-19T12:49:11Z</time>
      </trkpt>
      <trkpt lat="49.1932" lon="1.93515">
        <ele>100</ele>
        <time>2025-01-19T12:50:15Z</time>
      </trkpt>
      <trkpt lat="49.19301" lon="1.93507">
        <ele>101</ele>
        <time>2025-01-19T12:50:41Z</time>
      </trkpt>
      <trkpt lat="49.19278" lon="1.93508">
        <ele>102</ele>
        <time>2025-01-19T12:51:12Z</time>
      </trkpt>
      <trkpt lat="49.19204" lon="1.93499">
        <ele>106</ele>
        <time>2025-01-19T12:52:51Z</time>
      </trkpt>
      <trkpt lat="49.19156" lon="1.93507">
        <ele>108</ele>
        <time>2025-01-19T12:53:55Z</time>
      </trkpt>
      <trkpt lat="49.19122" lon="1.93506">
        <ele>111</ele>
        <time>2025-01-19T12:54:40Z</time>
      </trkpt>
      <trkpt lat="49.19115" lon="1.93505">
        <ele>111</ele>
        <time>2025-01-19T12:54:50Z</time>
      </trkpt>
      <trkpt lat="49.19115" lon="1.93502">
        <ele>111</ele>
        <time>2025-01-19T12:54:52Z</time>
      </trkpt>
      <trkpt lat="49.19114" lon="1.93509">
        <ele>112</ele>
        <time>2025-01-19T12:54:59Z</time>
      </trkpt>
      <trkpt lat="49.19105" lon="1.93509">
        <ele>112</ele>
        <time>2025-01-19T12:55:11Z</time>
      </trkpt>
      <trkpt lat="49.19084" lon="1.93503">
        <ele>114</ele>
        <time>2025-01-19T12:55:39Z</time>
      </trkpt>
      <trkpt lat="49.19036" lon="1.93505">
        <ele>117</ele>
        <time>2025-01-19T12:56:43Z</time>
      </trkpt>
      <trkpt lat="49.18997" lon="1.93497">
        <ele>120</ele>
        <time>2025-01-19T12:57:36Z</time>
      </trkpt>
      <trkpt lat="49.18986" lon="1.93498">
        <ele>120</ele>
        <time>2025-01-19T12:57:50Z</time>
      </trkpt>
      <trkpt lat="49.18953" lon="1.93489">
        <ele>119</ele>
        <time>2025-01-19T12:58:35Z</time>
      </trkpt>
      <trkpt lat="49.18923" lon="1.93489">
        <ele>119</ele>
        <time>2025-01-19T12:59:15Z</time>
      </trkpt>
      <trkpt lat="49.18915" lon="1.93481">
        <ele>118</ele>
        <time>2025-01-19T12:59:28Z</time>
      </trkpt>
      <trkpt lat="49.18871" lon="1.93477">
        <ele>118</ele>
        <time>2025-01-19T13:00:27Z</time>
      </trkpt>
      <trkpt lat="49.18856" lon="1.93471">
        <ele>118</ele>
        <time>2025-01-19T13:00:48Z</time>
      </trkpt>
      <trkpt lat="49.18812" lon="1.93471">
        <ele>118</ele>
        <time>2025-01-19T13:01:46Z</time>
      </trkpt>
      <trkpt lat="49.18796" lon="1.93465">
        <ele>118</ele>
        <time>2025-01-19T13:02:08Z</time>
      </trkpt>
      <trkpt lat="49.18726" lon="1.93457">
        <ele>118</ele>
        <time>2025-01-19T13:03:42Z</time>
      </trkpt>
      <trkpt lat="49.18694" lon="1.93442">
        <ele>118</ele>
        <time>2025-01-19T13:04:27Z</time>
      </trkpt>
      <trkpt lat="49.18671" lon="1.93448">
        <ele>118</ele>
        <time>2025-01-19T13:04:58Z</time>
      </trkpt>
      <trkpt lat="49.18615" lon="1.93431">
        <ele>117</ele>
        <time>2025-01-19T13:06:14Z</time>
      </trkpt>
      <trkpt lat="49.18584" lon="1.93429">
        <ele>116</ele>
        <time>2025-01-19T13:06:55Z</time>
      </trkpt>
      <trkpt lat="49.18567" lon="1.93423">
        <ele>116</ele>
        <time>2025-01-19T13:07:19Z</time>
      </trkpt>
      <trkpt lat="49.18546" lon="1.93429">
        <ele>116</ele>
        <time>2025-01-19T13:07:47Z</time>
      </trkpt>
      <trkpt lat="49.1853" lon="1.93422">
        <ele>116</ele>
        <time>2025-01-19T13:08:09Z</time>
      </trkpt>
      <trkpt lat="49.18502" lon="1.93418">
        <ele>116</ele>
        <time>2025-01-19T13:08:47Z</time>
      </trkpt>
      <trkpt lat="49.18464" lon="1.93402">
        <ele>117</ele>
        <time>2025-01-19T13:09:39Z</time>
      </trkpt>
      <trkpt lat="49.18448" lon="1.93394">
        <ele>117</ele>
        <time>2025-01-19T13:10:02Z</time>
      </trkpt>
      <trkpt lat="49.18434" lon="1.93381">
        <ele>117</ele>
        <time>2025-01-19T13:10:24Z</time>
      </trkpt>
      <trkpt lat="49.18399" lon="1.93367">
        <ele>116</ele>
        <time>2025-01-19T13:11:12Z</time>
      </trkpt>
      <trkpt lat="49.18359" lon="1.93357">
        <ele>113</ele>
        <time>2025-01-19T13:12:06Z</time>
      </trkpt>
      <trkpt lat="49.1832" lon="1.93354">
        <ele>110</ele>
        <time>2025-01-19T13:12:58Z</time>
      </trkpt>
      <trkpt lat="49.18306" lon="1.93346">
        <ele>110</ele>
        <time>2025-01-19T13:13:18Z</time>
      </trkpt>
      <trkpt lat="49.18286" lon="1.93346">
        <ele>109</ele>
        <time>2025-01-19T13:13:45Z</time>
      </trkpt>
      <trkpt lat="49.18265" lon="1.93339">
        <ele>108</ele>
        <time>2025-01-19T13:14:13Z</time>
      </trkpt>
      <trkpt lat="49.18252" lon="1.9334">
        <ele>107</ele>
        <time>2025-01-19T13:14:31Z</time>
      </trkpt>
      <trkpt lat="49.18228" lon="1.93331">
        <ele>106</ele>
        <time>2025-01-19T13:15:04Z</time>
      </trkpt>
      <trkpt lat="49.18183" lon="1.93328">
        <ele>104</ele>
        <time>2025-01-19T13:16:04Z</time>
      </trkpt>
      <trkpt lat="49.18151" lon="1.93319">
        <ele>102</ele>
        <time>2025-01-19T13:16:47Z</time>
      </trkpt>
      <trkpt lat="49.18114" lon="1.93322">
        <ele>100</ele>
        <time>2025-01-19T13:17:37Z</time>
      </trkpt>
      <trkpt lat="49.1809" lon="1.93311">
        <ele>98</ele>
        <time>2025-01-19T13:18:10Z</time>
      </trkpt>
      <trkpt lat="49.18085" lon="1.93306">
        <ele>97</ele>
        <time>2025-01-19T13:18:18Z</time>
      </trkpt>
      <trkpt lat="49.18086" lon="1.93302">
        <ele>97</ele>
        <time>2025-01-19T13:18:22Z</time>
      </trkpt>
      <trkpt lat="49.18086" lon="1.93306">
        <ele>98</ele>
        <time>2025-01-19T13:18:25Z</time>
      </trkpt>
      <trkpt lat="49.18078" lon="1.9331">
        <ele>97</ele>
        <time>2025-01-19T13:18:37Z</time>
      </trkpt>
      <trkpt lat="49.17989" lon="1.93301">
        <ele>92</ele>
        <time>2025-01-19T13:20:36Z</time>
      </trkpt>
      <trkpt lat="49.1794" lon="1.93292">
        <ele>91</ele>
        <time>2025-01-19T13:21:42Z</time>
      </trkpt>
      <trkpt lat="49.1785" lon="1.93251">
        <ele>86</ele>
        <time>2025-01-19T13:23:47Z</time>
      </trkpt>
      <trkpt lat="49.17785" lon="1.93197">
        <ele>79</ele>
        <time>2025-01-19T13:25:26Z</time>
      </trkpt>
      <trkpt lat="49.17739" lon="1.93141">
        <ele>74</ele>
        <time>2025-01-19T13:26:44Z</time>
      </trkpt>
      <trkpt lat="49.17716" lon="1.93135">
        <ele>72</ele>
        <time>2025-01-19T13:27:15Z</time>
      </trkpt>
      <trkpt lat="49.1768" lon="1.93155">
        <ele>71</ele>
        <time>2025-01-19T13:28:06Z</time>
      </trkpt>
      <trkpt lat="49.17668" lon="1.93156">
        <ele>71</ele>
        <time>2025-01-19T13:28:22Z</time>
      </trkpt>
      <trkpt lat="49.17625" lon="1.93131">
        <ele>68</ele>
        <time>2025-01-19T13:29:24Z</time>
      </trkpt>
      <trkpt lat="49.17609" lon="1.93126">
        <ele>68</ele>
        <time>2025-01-19T13:29:45Z</time>
      </trkpt>
      <trkpt lat="49.17597" lon="1.93132">
        <ele>67</ele>
        <time>2025-01-19T13:30:02Z</time>
      </trkpt>
      <trkpt lat="49.1759" lon="1.9313">
        <ele>67</ele>
        <time>2025-01-19T13:30:12Z</time>
      </trkpt>
      <trkpt lat="49.17571" lon="1.93118">
        <ele>68</ele>
        <time>2025-01-19T13:30:39Z</time>
      </trkpt>
      <trkpt lat="49.17548" lon="1.93092">
        <ele>70</ele>
        <time>2025-01-19T13:31:17Z</time>
      </trkpt>
      <trkpt lat="49.17537" lon="1.93089">
        <ele>71</ele>
        <time>2025-01-19T13:31:32Z</time>
      </trkpt>
      <trkpt lat="49.17514" lon="1.93127">
        <ele>72</ele>
        <time>2025-01-19T13:32:18Z</time>
      </trkpt>
      <trkpt lat="49.17478" lon="1.93156">
        <ele>73</ele>
        <time>2025-01-19T13:33:12Z</time>
      </trkpt>
      <trkpt lat="49.17468" lon="1.93175">
        <ele>72</ele>
        <time>2025-01-19T13:33:33Z</time>
      </trkpt>
      <trkpt lat="49.17457" lon="1.93186">
        <ele>72</ele>
        <time>2025-01-19T13:33:51Z</time>
      </trkpt>
      <trkpt lat="49.1743" lon="1.9319">
        <ele>73</ele>
        <time>2025-01-19T13:34:27Z</time>
      </trkpt>
      <trkpt lat="49.17403" lon="1.93201">
        <ele>73</ele>
        <time>2025-01-19T13:35:04Z</time>
      </trkpt>
      <trkpt lat="49.17386" lon="1.93201">
        <ele>73</ele>
        <time>2025-01-19T13:35:27Z</time>
      </trkpt>
      <trkpt lat="49.17354" lon="1.93193">
        <ele>74</ele>
        <time>2025-01-19T13:36:10Z</time>
      </trkpt>
      <trkpt lat="49.1733" lon="1.93198">
        <ele>74</ele>
        <time>2025-01-19T13:36:42Z</time>
      </trkpt>
      <trkpt lat="49.17287" lon="1.93233">
        <ele>73</ele>
        <time>2025-01-19T13:37:47Z</time>
      </trkpt>
      <trkpt lat="49.17246" lon="1.93257">
        <ele>72</ele>
        <time>2025-01-19T13:38:46Z</time>
      </trkpt>
      <trkpt lat="49.17236" lon="1.93257">
        <ele>73</ele>
        <time>2025-01-19T13:38:59Z</time>
      </trkpt>
      <trkpt lat="49.17206" lon="1.93269">
        <ele>74</ele>
        <time>2025-01-19T13:39:41Z</time>
      </trkpt>
      <trkpt lat="49.17154" lon="1.9331">
        <ele>72</ele>
        <time>2025-01-19T13:40:59Z</time>
      </trkpt>
      <trkpt lat="49.17135" lon="1.9332">
        <ele>71</ele>
        <time>2025-01-19T13:41:26Z</time>
      </trkpt>
      <trkpt lat="49.17116" lon="1.93317">
        <ele>71</ele>
        <time>2025-01-19T13:41:51Z</time>
      </trkpt>
      <trkpt lat="49.17097" lon="1.93307">
        <ele>72</ele>
        <time>2025-01-19T13:42:18Z</time>
      </trkpt>
      <trkpt lat="49.17085" lon="1.93295">
        <ele>73</ele>
        <time>2025-01-19T13:42:37Z</time>
      </trkpt>
      <trkpt lat="49.17067" lon="1.93291">
        <ele>73</ele>
        <time>2025-01-19T13:43:01Z</time>
      </trkpt>
      <trkpt lat="49.1704" lon="1.93277">
        <ele>74</ele>
        <time>2025-01-19T13:43:39Z</time>
      </trkpt>
      <trkpt lat="49.17004" lon="1.93253">
        <ele>75</ele>
        <time>2025-01-19T13:44:32Z</time>
      </trkpt>
      <trkpt lat="49.16967" lon="1.93246">
        <ele>77</ele>
        <time>2025-01-19T13:45:22Z</time>
      </trkpt>
      <trkpt lat="49.1694" lon="1.93248">
        <ele>77</ele>
        <time>2025-01-19T13:45:58Z</time>
      </trkpt>
      <trkpt lat="49.16919" lon="1.93255">
        <ele>77</ele>
        <time>2025-01-19T13:46:26Z</time>
      </trkpt>
      <trkpt lat="49.16907" lon="1.93264">
        <ele>78</ele>
        <time>2025-01-19T13:46:44Z</time>
      </trkpt>
      <trkpt lat="49.16862" lon="1.93276">
        <ele>82</ele>
        <time>2025-01-19T13:47:45Z</time>
      </trkpt>
      <trkpt lat="49.16855" lon="1.93284">
        <ele>82</ele>
        <time>2025-01-19T13:47:57Z</time>
      </trkpt>
      <trkpt lat="49.16839" lon="1.93291">
        <ele>84</ele>
        <time>2025-01-19T13:48:19Z</time>
      </trkpt>
      <trkpt lat="49.16825" lon="1.93306">
        <ele>84</ele>
        <time>2025-01-19T13:48:42Z</time>
      </trkpt>
      <trkpt lat="49.16792" lon="1.93326">
        <ele>86</ele>
        <time>2025-01-19T13:49:29Z</time>
      </trkpt>
      <trkpt lat="49.16745" lon="1.9333">
        <ele>88</ele>
        <time>2025-01-19T13:50:32Z</time>
      </trkpt>
      <trkpt lat="49.16715" lon="1.93325">
        <ele>89</ele>
        <time>2025-01-19T13:51:12Z</time>
      </trkpt>
      <trkpt lat="49.16663" lon="1.9334">
        <ele>89</ele>
        <time>2025-01-19T13:52:23Z</time>
      </trkpt>
      <trkpt lat="49.16535" lon="1.93421">
        <ele>86</ele>
        <time>2025-01-19T13:55:28Z</time>
      </trkpt>
      <trkpt lat="49.16487" lon="1.93435">
        <ele>83</ele>
        <time>2025-01-19T13:56:33Z</time>
      </trkpt>
      <trkpt lat="49.16462" lon="1.93438">
        <ele>82</ele>
        <time>2025-01-19T13:57:06Z</time>
      </trkpt>
      <trkpt lat="49.16425" lon="1.93436">
        <ele>80</ele>
        <time>2025-01-19T13:57:56Z</time>
      </trkpt>
      <trkpt lat="49.16409" lon="1.93445">
        <ele>79</ele>
        <time>2025-01-19T13:58:18Z</time>
      </trkpt>
      <trkpt lat="49.16367" lon="1.93455">
        <ele>78</ele>
        <time>2025-01-19T13:59:15Z</time>
      </trkpt>
      <trkpt lat="49.16335" lon="1.93487">
        <ele>73</ele>
        <time>2025-01-19T14:00:06Z</time>
      </trkpt>
      <trkpt lat="49.16313" lon="1.93496">
        <ele>73</ele>
        <time>2025-01-19T14:00:37Z</time>
      </trkpt>
      <trkpt lat="49.16303" lon="1.93496">
        <ele>74</ele>
        <time>2025-01-19T14:00:50Z</time>
      </trkpt>
      <trkpt lat="49.16274" lon="1.9351">
        <ele>74</ele>
        <time>2025-01-19T14:01:31Z</time>
      </trkpt>
      <trkpt lat="49.16246" lon="1.93545">
        <ele>72</ele>
        <time>2025-01-19T14:02:19Z</time>
      </trkpt>
      <trkpt lat="49.16213" lon="1.9357">
        <ele>71</ele>
        <time>2025-01-19T14:03:08Z</time>
      </trkpt>
      <trkpt lat="49.16186" lon="1.93597">
        <ele>69</ele>
        <time>2025-01-19T14:03:51Z</time>
      </trkpt>
      <trkpt lat="49.16164" lon="1.93626">
        <ele>68</ele>
        <time>2025-01-19T14:04:30Z</time>
      </trkpt>
      <trkpt lat="49.16161" lon="1.93636">
        <ele>67</ele>
        <time>2025-01-19T14:04:39Z</time>
      </trkpt>
      <trkpt lat="49.16148" lon="1.93644">
        <ele>66</ele>
        <time>2025-01-19T14:04:58Z</time>
      </trkpt>
      <trkpt lat="49.16132" lon="1.93639">
        <ele>66</ele>
        <time>2025-01-19T14:05:20Z</time>
      </trkpt>
      <trkpt lat="49.16112" lon="1.93617">
        <ele>67</ele>
        <time>2025-01-19T14:05:53Z</time>
      </trkpt>
      <trkpt lat="49.16083" lon="1.9361">
        <ele>67</ele>
        <time>2025-01-19T14:06:32Z</time>
      </trkpt>
      <trkpt lat="49.16071" lon="1.93612">
        <ele>66</ele>
        <time>2025-01-19T14:06:48Z</time>
      </trkpt>
      <trkpt lat="49.16055" lon="1.9363">
        <ele>65</ele>
        <time>2025-01-19T14:07:15Z</time>
      </trkpt>
      <trkpt lat="49.16026" lon="1.93639">
        <ele>65</ele>
        <time>2025-01-19T14:07:54Z</time>
      </trkpt>
      <trkpt lat="49.16021" lon="1.93637">
        <ele>65</ele>
        <time>2025-01-19T14:08:01Z</time>
      </trkpt>
      <trkpt lat="49.16022" lon="1.93631">
        <ele>65</ele>
        <time>2025-01-19T14:08:06Z</time>
      </trkpt>
      <trkpt lat="49.16022" lon="1.9364">
        <ele>65</ele>
        <time>2025-01-19T14:08:14Z</time>
      </trkpt>
      <trkpt lat="49.15989" lon="1.93637">
        <ele>64</ele>
        <time>2025-01-19T14:08:58Z</time>
      </trkpt>
      <trkpt lat="49.15963" lon="1.93628">
        <ele>64</ele>
        <time>2025-01-19T14:09:34Z</time>
      </trkpt>
      <trkpt lat="49.15922" lon="1.9363">
        <ele>63</ele>
        <time>2025-01-19T14:10:29Z</time>
      </trkpt>
      <trkpt lat="49.15875" lon="1.93621">
        <ele>62</ele>
        <time>2025-01-19T14:11:32Z</time>
      </trkpt>
      <trkpt lat="49.15782" lon="1.93639">
        <ele>62</ele>
        <time>2025-01-19T14:13:37Z</time>
      </trkpt>
      <trkpt lat="49.15703" lon="1.93673">
        <ele>61</ele>
        <time>2025-01-19T14:15:26Z</time>
      </trkpt>
      <trkpt lat="49.1566" lon="1.93697">
        <ele>61</ele>
        <time>2025-01-19T14:16:28Z</time>
      </trkpt>
      <trkpt lat="49.15618" lon="1.93729">
        <ele>61</ele>
        <time>2025-01-19T14:17:30Z</time>
      </trkpt>
      <trkpt lat="49.15579" lon="1.93767">
        <ele>62</ele>
        <time>2025-01-19T14:18:32Z</time>
      </trkpt>
      <trkpt lat="49.15533" lon="1.93801">
        <ele>61</ele>
        <time>2025-01-19T14:19:40Z</time>
      </trkpt>
      <trkpt lat="49.15456" lon="1.93887">
        <ele>60</ele>
        <time>2025-01-19T14:21:47Z</time>
      </trkpt>
      <trkpt lat="49.15402" lon="1.93925">
        <ele>59</ele>
        <time>2025-01-19T14:23:07Z</time>
      </trkpt>
      <trkpt lat="49.15357" lon="1.9395">
        <ele>61</ele>
        <time>2025-01-19T14:24:10Z</time>
      </trkpt>
      <trkpt lat="49.15347" lon="1.9396">
        <ele>62</ele>
        <time>2025-01-19T14:24:26Z</time>
      </trkpt>
      <trkpt lat="49.15327" lon="1.93969">
        <ele>62</ele>
        <time>2025-01-19T14:24:54Z</time>
      </trkpt>
      <trkpt lat="49.15303" lon="1.93919">
        <ele>61</ele>
        <time>2025-01-19T14:25:48Z</time>
      </trkpt>
      <trkpt lat="49.15295" lon="1.93872">
        <ele>63</ele>
        <time>2025-01-19T14:26:31Z</time>
      </trkpt>
      <trkpt lat="49.15281" lon="1.93845">
        <ele>65</ele>
        <time>2025-01-19T14:27:01Z</time>
      </trkpt>
      <trkpt lat="49.15269" lon="1.93858">
        <ele>66</ele>
        <time>2025-01-19T14:27:20Z</time>
      </trkpt>
      <trkpt lat="49.15235" lon="1.93936">
        <ele>63</ele>
        <time>2025-01-19T14:28:42Z</time>
      </trkpt>
      <trkpt lat="49.15218" lon="1.93954">
        <ele>62</ele>
        <time>2025-01-19T14:29:10Z</time>
      </trkpt>
      <trkpt lat="49.15202" lon="1.93958">
        <ele>62</ele>
        <time>2025-01-19T14:29:32Z</time>
      </trkpt>
      <trkpt lat="49.15177" lon="1.93945">
        <ele>63</ele>
        <time>2025-01-19T14:30:07Z</time>
      </trkpt>
      <trkpt lat="49.15166" lon="1.93934">
        <ele>63</ele>
        <time>2025-01-19T14:30:24Z</time>
      </trkpt>
      <trkpt lat="49.15145" lon="1.93895">
        <ele>64</ele>
        <time>2025-01-19T14:31:08Z</time>
      </trkpt>
      <trkpt lat="49.15132" lon="1.93833">
        <ele>67</ele>
        <time>2025-01-19T14:32:05Z</time>
      </trkpt>
      <trkpt lat="49.15119" lon="1.93797">
        <ele>69</ele>
        <time>2025-01-19T14:32:41Z</time>
      </trkpt>
      <trkpt lat="49.15099" lon="1.9376">
        <ele>70</ele>
        <time>2025-01-19T14:33:23Z</time>
      </trkpt>
      <trkpt lat="49.15085" lon="1.93719">
        <ele>72</ele>
        <time>2025-01-19T14:34:03Z</time>
      </trkpt>
      <trkpt lat="49.15035" lon="1.93642">
        <ele>76</ele>
        <time>2025-01-19T14:35:38Z</time>
      </trkpt>
      <trkpt lat="49.14981" lon="1.93596">
        <ele>77</ele>
        <time>2025-01-19T14:37:01Z</time>
      </trkpt>
      <trkpt lat="49.14931" lon="1.9357">
        <ele>76</ele>
        <time>2025-01-19T14:38:11Z</time>
      </trkpt>
      <trkpt lat="49.14901" lon="1.93565">
        <ele>75</ele>
        <time>2025-01-19T14:38:51Z</time>
      </trkpt>
      <trkpt lat="49.14871" lon="1.93546">
        <ele>76</ele>
        <time>2025-01-19T14:39:35Z</time>
      </trkpt>
      <trkpt lat="49.14855" lon="1.93547">
        <ele>75</ele>
        <time>2025-01-19T14:39:56Z</time>
      </trkpt>
      <trkpt lat="49.14844" lon="1.93539">
        <ele>76</ele>
        <time>2025-01-19T14:40:12Z</time>
      </trkpt>
      <trkpt lat="49.14834" lon="1.9354">
        <ele>76</ele>
        <time>2025-01-19T14:40:26Z</time>
      </trkpt>
      <trkpt lat="49.14815" lon="1.93549">
        <ele>75</ele>
        <time>2025-01-19T14:40:52Z</time>
      </trkpt>
      <trkpt lat="49.14803" lon="1.93563">
        <ele>73</ele>
        <time>2025-01-19T14:41:12Z</time>
      </trkpt>
      <trkpt lat="49.14792" lon="1.93565">
        <ele>73</ele>
        <time>2025-01-19T14:41:27Z</time>
      </trkpt>
      <trkpt lat="49.1475" lon="1.93586">
        <ele>71</ele>
        <time>2025-01-19T14:42:26Z</time>
      </trkpt>
      <trkpt lat="49.14735" lon="1.93599">
        <ele>68</ele>
        <time>2025-01-19T14:42:49Z</time>
      </trkpt>
      <trkpt lat="49.14676" lon="1.93605">
        <ele>65</ele>
        <time>2025-01-19T14:44:08Z</time>
      </trkpt>
      <trkpt lat="49.14661" lon="1.93618">
        <ele>63</ele>
        <time>2025-01-19T14:44:31Z</time>
      </trkpt>
      <trkpt lat="49.14659" lon="1.93657">
        <ele>58</ele>
        <time>2025-01-19T14:45:05Z</time>
      </trkpt>
      <trkpt lat="49.14662" lon="1.93693">
        <ele>57</ele>
        <time>2025-01-19T14:45:37Z</time>
      </trkpt>
      <trkpt lat="49.14658" lon="1.93715">
        <ele>57</ele>
        <time>2025-01-19T14:45:57Z</time>
      </trkpt>
      <trkpt lat="49.14646" lon="1.9375">
        <ele>57</ele>
        <time>2025-01-19T14:46:31Z</time>
      </trkpt>
      <trkpt lat="49.1463" lon="1.9377">
        <ele>57</ele>
        <time>2025-01-19T14:46:59Z</time>
      </trkpt>
      <trkpt lat="49.14622" lon="1.9379">
        <ele>57</ele>
        <time>2025-01-19T14:47:19Z</time>
      </trkpt>
      <trkpt lat="49.14623" lon="1.9388">
        <ele>60</ele>
        <time>2025-01-19T14:48:38Z</time>
      </trkpt>
      <trkpt lat="49.1462" lon="1.93891">
        <ele>60</ele>
        <time>2025-01-19T14:48:48Z</time>
      </trkpt>
      <trkpt lat="49.14626" lon="1.93932">
        <ele>63</ele>
        <time>2025-01-19T14:49:25Z</time>
      </trkpt>
      <trkpt lat="49.14635" lon="1.93951">
        <ele>65</ele>
        <time>2025-01-19T14:49:45Z</time>
      </trkpt>
      <trkpt lat="49.14631" lon="1.93967">
        <ele>66</ele>
        <time>2025-01-19T14:50:00Z</time>
      </trkpt>
      <trkpt lat="49.14606" lon="1.93998">
        <ele>66</ele>
        <time>2025-01-19T14:50:43Z</time>
      </trkpt>
      <trkpt lat="49.14593" lon="1.94005">
        <ele>65</ele>
        <time>2025-01-19T14:51:02Z</time>
      </trkpt>
      <trkpt lat="49.14546" lon="1.9399">
        <ele>66</ele>
        <time>2025-01-19T14:52:06Z</time>
      </trkpt>
      <trkpt lat="49.14501" lon="1.93952">
        <ele>66</ele>
        <time>2025-01-19T14:53:14Z</time>
      </trkpt>
      <trkpt lat="49.14495" lon="1.93941">
        <ele>66</ele>
        <time>2025-01-19T14:53:27Z</time>
      </trkpt>
      <trkpt lat="49.14486" lon="1.93937">
        <ele>66</ele>
        <time>2025-01-19T14:53:39Z</time>
      </trkpt>
      <trkpt lat="49.14465" lon="1.93939">
        <ele>66</ele>
        <time>2025-01-19T14:54:08Z</time>
      </trkpt>
      <trkpt lat="49.1446" lon="1.93943">
        <ele>67</ele>
        <time>2025-01-19T14:54:15Z</time>
      </trkpt>
      <trkpt lat="49.14465" lon="1.93946">
        <ele>67</ele>
        <time>2025-01-19T14:54:22Z</time>
      </trkpt>
      <trkpt lat="49.14463" lon="1.93954">
        <ele>68</ele>
        <time>2025-01-19T14:54:30Z</time>
      </trkpt>
      <trkpt lat="49.14459" lon="1.93936">
        <ele>66</ele>
        <time>2025-01-19T14:54:46Z</time>
      </trkpt>
      <trkpt lat="49.14462" lon="1.93945">
        <ele>67</ele>
        <time>2025-01-19T14:54:55Z</time>
      </trkpt>
      <trkpt lat="49.1441" lon="1.93965">
        <ele>71</ele>
        <time>2025-01-19T14:56:07Z</time>
      </trkpt>
      <trkpt lat="49.14345" lon="1.94003">
        <ele>75</ele>
        <time>2025-01-19T14:57:40Z</time>
      </trkpt>
      <trkpt lat="49.14319" lon="1.94011">
        <ele>76</ele>
        <time>2025-01-19T14:58:15Z</time>
      </trkpt>
      <trkpt lat="49.14296" lon="1.9401">
        <ele>76</ele>
        <time>2025-01-19T14:58:46Z</time>
      </trkpt>
      <trkpt lat="49.14256" lon="1.93988">
        <ele>73</ele>
        <time>2025-01-19T14:59:42Z</time>
      </trkpt>
      <trkpt lat="49.14235" lon="1.93988">
        <ele>73</ele>
        <time>2025-01-19T15:00:10Z</time>
      </trkpt>
      <trkpt lat="49.14223" lon="1.93982">
        <ele>72</ele>
        <time>2025-01-19T15:00:27Z</time>
      </trkpt>
      <trkpt lat="49.14212" lon="1.93984">
        <ele>72</ele>
        <time>2025-01-19T15:00:42Z</time>
      </trkpt>
      <trkpt lat="49.14196" lon="1.93978">
        <ele>71</ele>
        <time>2025-01-19T15:01:04Z</time>
      </trkpt>
      <trkpt lat="49.14182" lon="1.9398">
        <ele>71</ele>
        <time>2025-01-19T15:01:23Z</time>
      </trkpt>
      <trkpt lat="49.1416" lon="1.93969">
        <ele>69</ele>
        <time>2025-01-19T15:01:54Z</time>
      </trkpt>
      <trkpt lat="49.14143" lon="1.93969">
        <ele>69</ele>
        <time>2025-01-19T15:02:16Z</time>
      </trkpt>
      <trkpt lat="49.14122" lon="1.93978">
        <ele>70</ele>
        <time>2025-01-19T15:02:45Z</time>
      </trkpt>
      <trkpt lat="49.14091" lon="1.93981">
        <ele>70</ele>
        <time>2025-01-19T15:03:27Z</time>
      </trkpt>
      <trkpt lat="49.14009" lon="1.93979">
        <ele>67</ele>
        <time>2025-01-19T15:05:16Z</time>
      </trkpt>
      <trkpt lat="49.13973" lon="1.9399">
        <ele>66</ele>
        <time>2025-01-19T15:06:05Z</time>
      </trkpt>
      <trkpt lat="49.13947" lon="1.94006">
        <ele>65</ele>
        <time>2025-01-19T15:06:43Z</time>
      </trkpt>
      <trkpt lat="49.139" lon="1.94072">
        <ele>64</ele>
        <time>2025-01-19T15:08:08Z</time>
      </trkpt>
      <trkpt lat="49.13861" lon="1.94154">
        <ele>65</ele>
        <time>2025-01-19T15:09:36Z</time>
      </trkpt>
      <trkpt lat="49.13843" lon="1.94241">
        <ele>66</ele>
        <time>2025-01-19T15:10:56Z</time>
      </trkpt>
      <trkpt lat="49.13825" lon="1.94271">
        <ele>66</ele>
        <time>2025-01-19T15:11:32Z</time>
      </trkpt>
      <trkpt lat="49.13806" lon="1.94292">
        <ele>66</ele>
        <time>2025-01-19T15:12:03Z</time>
      </trkpt>
      <trkpt lat="49.13792" lon="1.94296">
        <ele>65</ele>
        <time>2025-01-19T15:12:22Z</time>
      </trkpt>
      <trkpt lat="49.13758" lon="1.9433">
        <ele>64</ele>
        <time>2025-01-19T15:13:16Z</time>
      </trkpt>
      <trkpt lat="49.13741" lon="1.94341">
        <ele>63</ele>
        <time>2025-01-19T15:13:41Z</time>
      </trkpt>
      <trkpt lat="49.13724" lon="1.94344">
        <ele>63</ele>
        <time>2025-01-19T15:14:04Z</time>
      </trkpt>
      <trkpt lat="49.13708" lon="1.94335">
        <ele>62</ele>
        <time>2025-01-19T15:14:26Z</time>
      </trkpt>
    </trkseg>
  </trk>
</gpx>